createdAt,value
2022-09-24T00:01:36.752Z,7.45
2022-09-24T00:04:06.306Z,6.18
2022-09-24T00:06:45.031Z,5.95
2022-09-24T00:09:13.941Z,6.47
2022-09-24T00:11:43.034Z,8.57
2022-09-24T00:14:09.912Z,6.47
2022-09-24T00:16:36.718Z,6.45
2022-09-24T00:19:05.300Z,5.82
2022-09-24T00:21:34.498Z,4.88
2022-09-24T00:24:07.614Z,8.93
2022-09-24T00:26:52.442Z,6.72
2022-09-24T00:29:22.078Z,4.78
2022-09-24T00:31:49.949Z,5.82
2022-09-24T00:34:17.173Z,5.05
2022-09-24T00:36:46.171Z,7.40
2022-09-24T00:39:13.189Z,5.80
2022-09-24T00:41:44.913Z,4.43
2022-09-24T00:44:52.842Z,7.15
2022-09-24T00:47:27.552Z,6.03
2022-09-24T00:50:04.733Z,8.02
2022-09-24T00:52:31.626Z,4.25
2022-09-24T00:54:58.224Z,6.90
2022-09-24T00:57:25.944Z,5.18
2022-09-24T00:59:54.817Z,5.78
2022-09-24T01:02:25.017Z,5.90
2022-09-24T01:04:56.195Z,6.18
2022-09-24T01:07:23.120Z,5.35
2022-09-24T01:09:49.654Z,6.00
2022-09-24T01:12:46.805Z,6.40
2022-09-24T01:15:26.023Z,5.07
2022-09-24T01:17:55.561Z,7.03
2022-09-24T01:20:32.078Z,5.95
2022-09-24T01:23:09.658Z,4.88
2022-09-24T01:25:45.381Z,8.90
2022-09-24T01:28:34.914Z,4.95
2022-09-24T01:31:07.940Z,4.55
2022-09-24T01:33:36.897Z,6.38
2022-09-24T01:36:08.506Z,5.60
2022-09-24T01:38:42.485Z,9.05
2022-09-24T01:41:11.521Z,8.23
2022-09-24T01:43:39.124Z,5.68
2022-09-24T01:46:10.230Z,4.95
2022-09-24T01:48:37.450Z,4.83
2022-09-24T01:51:08.590Z,4.28
2022-09-24T01:54:19.718Z,6.35
2022-09-24T01:57:12.373Z,5.97
2022-09-24T01:59:49.914Z,4.70
2022-09-24T02:02:30.503Z,5.05
2022-09-24T02:05:16.199Z,5.85
2022-09-24T02:08:05.314Z,5.63
2022-09-24T02:10:40.220Z,6.07
2022-09-24T02:13:12.845Z,6.57
2022-09-24T02:15:42.570Z,5.85
2022-09-24T02:18:13.267Z,7.75
2022-09-24T02:20:43.388Z,7.38
2022-09-24T02:23:11.863Z,8.75
2022-09-24T02:25:57.464Z,5.03
2022-09-24T02:28:24.766Z,8.73
2022-09-24T02:30:59.402Z,8.27
2022-09-24T02:33:47.300Z,5.32
2022-09-24T02:36:13.850Z,6.30
2022-09-24T02:38:40.365Z,7.15
2022-09-24T02:41:12.791Z,5.10
2022-09-24T02:43:41.103Z,7.13
2022-09-24T02:46:14.029Z,6.15
2022-09-24T02:48:40.603Z,4.38
2022-09-24T02:51:07.216Z,4.25
2022-09-24T02:53:33.772Z,5.35
2022-09-24T02:56:04.030Z,5.93
2022-09-24T02:58:30.935Z,4.88
2022-09-24T03:00:57.716Z,4.78
2022-09-24T03:03:24.655Z,4.88
2022-09-24T03:05:53.028Z,4.07
2022-09-24T03:08:24.241Z,3.72
2022-09-24T03:10:51.472Z,4.13
2022-09-24T03:13:18.994Z,6.00
2022-09-24T03:15:46.322Z,4.70
2022-09-24T03:18:13.762Z,7.70
2022-09-24T03:20:40.347Z,6.78
2022-09-24T03:23:06.894Z,6.70
2022-09-24T03:25:33.413Z,4.85
2022-09-24T03:27:59.895Z,4.85
2022-09-24T03:30:44.749Z,4.53
2022-09-24T03:33:11.192Z,4.80
2022-09-24T03:35:37.667Z,6.45
2022-09-24T03:38:04.145Z,8.95
2022-09-24T03:40:30.646Z,5.75
2022-09-24T03:42:57.174Z,6.28
2022-09-24T03:45:24.535Z,4.38
2022-09-24T03:47:51.088Z,3.50
2022-09-24T03:50:17.970Z,5.22
2022-09-24T03:52:44.644Z,5.28
2022-09-24T03:55:11.095Z,5.97
2022-09-24T03:57:37.657Z,6.07
2022-09-24T04:00:04.857Z,8.13
2022-09-24T04:02:31.456Z,8.40
2022-09-24T04:04:58.045Z,8.32
2022-09-24T04:07:24.536Z,5.63
2022-09-24T04:09:51.014Z,5.38
2022-09-24T04:12:17.528Z,6.80
2022-09-24T04:14:44.031Z,5.82
2022-09-24T04:17:10.479Z,6.85
2022-09-24T04:19:36.968Z,3.47
2022-09-24T04:22:03.772Z,5.00
2022-09-24T04:24:30.432Z,5.07
2022-09-24T04:26:56.901Z,6.22
2022-09-24T04:29:23.380Z,5.93
2022-09-24T04:31:49.856Z,6.47
2022-09-24T04:34:16.392Z,7.30
2022-09-24T04:36:42.887Z,4.57
2022-09-24T04:39:10.639Z,6.53
2022-09-24T04:41:38.232Z,5.13
2022-09-24T04:44:05.313Z,6.80
2022-09-24T04:46:34.357Z,4.93
2022-09-24T04:49:01.226Z,7.05
2022-09-24T04:51:27.836Z,10.00
2022-09-24T04:53:58.458Z,7.72
2022-09-24T04:56:24.993Z,6.07
2022-09-24T04:58:51.807Z,9.02
2022-09-24T05:01:19.778Z,19.98
2022-09-24T05:03:46.364Z,16.58
2022-09-24T05:06:13.378Z,11.02
2022-09-24T05:08:39.901Z,11.02
2022-09-24T05:11:06.550Z,8.38
2022-09-24T05:13:33.335Z,6.88
2022-09-24T05:16:01.037Z,7.32
2022-09-24T05:18:28.104Z,6.43
2022-09-24T05:20:54.991Z,10.50
2022-09-24T05:23:21.655Z,6.28
2022-09-24T05:26:06.728Z,6.32
2022-09-24T05:28:33.278Z,4.70
2022-09-24T05:31:00.067Z,7.80
2022-09-24T05:33:26.675Z,6.68
2022-09-24T05:35:58.011Z,6.20
2022-09-24T05:38:24.636Z,9.88
2022-09-24T05:40:51.246Z,8.95
2022-09-24T05:43:19.439Z,13.98
2022-09-24T05:45:46.314Z,8.85
2022-09-24T05:48:12.925Z,8.00
2022-09-24T05:50:39.422Z,6.32
2022-09-24T05:53:06.232Z,6.70
2022-09-24T05:55:33.582Z,6.88
2022-09-24T05:58:08.142Z,9.88
2022-09-24T06:00:36.074Z,7.22
2022-09-24T06:03:09.492Z,7.63
2022-09-24T06:05:36.145Z,9.52
2022-09-24T06:08:04.068Z,8.05
2022-09-24T06:10:30.570Z,7.65
2022-09-24T06:12:57.165Z,7.63
2022-09-24T06:15:27.664Z,6.53
2022-09-24T06:17:55.121Z,8.25
2022-09-24T06:20:22.485Z,7.53
2022-09-24T06:22:49.379Z,12.75
2022-09-24T06:25:16.326Z,11.50
2022-09-24T06:27:42.801Z,5.90
2022-09-24T06:30:09.769Z,8.60
2022-09-24T06:32:36.450Z,6.53
2022-09-24T06:35:03.506Z,7.82
2022-09-24T06:37:31.708Z,7.60
2022-09-24T06:39:58.179Z,6.93
2022-09-24T06:42:24.622Z,8.75
2022-09-24T06:44:51.472Z,6.75
2022-09-24T06:47:17.908Z,10.00
2022-09-24T06:49:44.407Z,7.50
2022-09-24T06:52:11.379Z,6.15
2022-09-24T06:54:38.771Z,8.88
2022-09-24T06:57:06.844Z,9.77
2022-09-24T06:59:33.329Z,10.52
2022-09-24T07:01:59.881Z,7.97
2022-09-24T07:04:26.344Z,7.70
2022-09-24T07:07:13.122Z,8.10
2022-09-24T07:09:41.484Z,8.88
2022-09-24T07:12:08.799Z,7.32
2022-09-24T07:14:35.309Z,7.78
2022-09-24T07:17:01.843Z,7.60
2022-09-24T07:19:28.281Z,8.07
2022-09-24T07:21:54.862Z,8.68
2022-09-24T07:24:21.322Z,7.20
2022-09-24T07:26:47.812Z,8.25
2022-09-24T07:29:14.254Z,7.40
2022-09-24T07:31:40.802Z,9.93
2022-09-24T07:34:10.351Z,7.10
2022-09-24T07:36:36.892Z,6.57
2022-09-24T07:39:03.654Z,7.30
2022-09-24T07:41:30.277Z,10.25
2022-09-24T07:43:56.867Z,8.07
2022-09-24T07:46:24.883Z,8.43
2022-09-24T07:48:57.835Z,7.00
2022-09-24T07:51:28.568Z,7.50
2022-09-24T07:53:56.082Z,6.57
2022-09-24T07:56:23.605Z,6.85
2022-09-24T07:58:50.997Z,9.55
2022-09-24T08:01:18.932Z,8.00
2022-09-24T08:03:49.194Z,5.90
2022-09-24T08:06:15.733Z,6.03
2022-09-24T08:08:43.507Z,10.90
2022-09-24T08:11:13.341Z,6.38
2022-09-24T08:13:40.061Z,8.95
2022-09-24T08:16:06.929Z,8.77
2022-09-24T08:18:33.625Z,6.25
2022-09-24T08:21:09.403Z,8.18
2022-09-24T08:23:36.389Z,9.40
2022-09-24T08:26:03.546Z,7.63
2022-09-24T08:28:31.437Z,7.60
2022-09-24T08:31:04.009Z,9.82
2022-09-24T08:33:32.399Z,6.55
2022-09-24T08:36:03.303Z,6.78
2022-09-24T08:38:29.798Z,7.00
2022-09-24T08:41:17.759Z,8.70
2022-09-24T08:43:52.581Z,6.72
2022-09-24T08:46:46.617Z,8.15
2022-09-24T08:49:22.606Z,7.07
2022-09-24T08:52:00.768Z,7.45
2022-09-24T08:54:30.921Z,8.55
2022-09-24T08:57:00.441Z,8.68
2022-09-24T08:59:33.433Z,8.48
2022-09-24T09:02:21.166Z,8.55
2022-09-24T09:05:08.962Z,7.07
2022-09-24T09:07:49.682Z,7.53
2022-09-24T09:10:28.938Z,17.23
2022-09-24T09:13:01.838Z,8.35
2022-09-24T09:15:44.731Z,10.48
2022-09-24T09:18:25.626Z,11.07
2022-09-24T09:20:52.611Z,9.40
2022-09-24T09:23:22.022Z,7.90
2022-09-24T09:26:00.010Z,9.50
2022-09-24T09:28:27.779Z,7.75
2022-09-24T09:30:59.086Z,8.75
2022-09-24T09:33:59.829Z,5.63
2022-09-24T09:36:53.321Z,7.75
2022-09-24T09:39:42.840Z,8.63
2022-09-24T09:42:22.748Z,8.45
2022-09-24T09:44:49.439Z,7.55
2022-09-24T09:47:35.990Z,8.80
2022-09-24T09:50:26.800Z,7.05
2022-09-24T09:52:53.974Z,5.85
2022-09-24T09:55:31.193Z,9.05
2022-09-24T09:58:19.809Z,9.02
2022-09-24T10:00:49.860Z,6.63
2022-09-24T10:03:26.759Z,7.93
2022-09-24T10:06:05.190Z,6.13
2022-09-24T10:08:31.901Z,8.63
2022-09-24T10:11:00.244Z,5.47
2022-09-24T10:13:27.938Z,8.10
2022-09-24T10:15:55.910Z,5.53
2022-09-24T10:18:46.350Z,7.03
2022-09-24T10:21:28.298Z,7.25
2022-09-24T10:24:01.320Z,7.70
2022-09-24T10:26:41.017Z,6.40
2022-09-24T10:29:35.022Z,5.70
2022-09-24T10:32:03.580Z,8.48
2022-09-24T10:34:30.089Z,8.02
2022-09-24T10:37:10.198Z,8.82
2022-09-24T10:39:37.440Z,10.05
2022-09-24T10:42:05.337Z,7.55
2022-09-24T10:44:37.315Z,12.05
2022-09-24T10:47:20.039Z,6.03
2022-09-24T10:49:55.287Z,7.95
2022-09-24T10:52:33.815Z,7.18
2022-09-24T10:55:00.239Z,8.93
2022-09-24T10:57:39.757Z,9.98
2022-09-24T11:00:46.234Z,7.85
2022-09-24T11:03:43.073Z,7.75
2022-09-24T11:06:22.871Z,8.30
2022-09-24T11:09:20.377Z,9.52
2022-09-24T11:11:56.877Z,12.27
2022-09-24T11:14:38.390Z,7.60
2022-09-24T11:17:19.650Z,9.75
2022-09-24T11:19:58.418Z,9.57
2022-09-24T11:22:33.944Z,7.72
2022-09-24T11:25:15.676Z,10.07
2022-09-24T11:27:57.782Z,8.00
2022-09-24T11:33:07.569Z,8.60
2022-09-24T11:36:06.426Z,10.00
2022-09-24T11:38:59.165Z,10.10
2022-09-24T11:41:36.665Z,12.60
2022-09-24T11:44:27.052Z,12.38
2022-09-24T11:47:15.301Z,11.55
2022-09-24T11:49:53.139Z,10.07
2022-09-24T11:52:39.382Z,15.68
2022-09-24T11:55:24.386Z,9.85
2022-09-24T11:58:01.101Z,11.07
2022-09-24T12:00:33.687Z,12.95
2022-09-24T12:03:06.299Z,14.38
2022-09-24T12:05:42.305Z,14.27
2022-09-24T12:08:15.941Z,16.45
2022-09-24T12:11:00.011Z,12.13
2022-09-24T12:13:48.224Z,14.88
2022-09-24T12:16:19.634Z,13.30
2022-09-24T12:18:55.583Z,14.93
2022-09-24T12:21:28.157Z,13.48
2022-09-24T12:24:03.007Z,13.95
2022-09-24T12:26:31.383Z,13.35
2022-09-24T12:29:32.279Z,14.75
2022-09-24T12:32:56.008Z,12.50
2022-09-24T12:35:31.649Z,14.23
2022-09-24T12:38:08.469Z,13.00
2022-09-24T12:40:35.005Z,14.95
2022-09-24T12:43:06.343Z,15.75
2022-09-24T12:45:34.105Z,13.73
2022-09-24T12:48:02.123Z,18.40
2022-09-24T12:50:32.256Z,13.10
2022-09-24T12:52:59.138Z,15.63
2022-09-24T12:55:28.726Z,16.38
2022-09-24T12:58:06.360Z,15.52
2022-09-24T13:00:41.212Z,13.52
2022-09-24T13:03:33.311Z,13.05
2022-09-24T13:06:00.465Z,13.95
2022-09-24T13:08:39.563Z,13.15
2022-09-24T13:11:25.876Z,15.65
2022-09-24T13:14:18.135Z,14.77
2022-09-24T13:19:26.012Z,18.27
2022-09-24T13:21:55.505Z,16.85
2022-09-24T13:24:52.429Z,15.30
2022-09-24T13:27:39.695Z,16.20
2022-09-24T13:30:15.695Z,17.70
2022-09-24T13:33:01.675Z,15.90
2022-09-24T13:35:35.472Z,16.83
2022-09-24T13:38:38.678Z,14.93
2022-09-24T13:41:40.724Z,11.70
2022-09-24T13:44:31.565Z,14.88
2022-09-24T13:47:22.929Z,15.43
2022-09-24T13:49:52.433Z,16.47
2022-09-24T13:52:37.848Z,17.65
2022-09-24T13:55:28.011Z,16.50
2022-09-24T13:57:56.088Z,18.27
2022-09-24T14:00:26.402Z,16.40
2022-09-24T14:03:23.561Z,20.52
2022-09-24T14:05:50.655Z,19.73
2022-09-24T14:08:21.146Z,20.00
2022-09-24T14:10:49.038Z,21.10
2022-09-24T14:13:18.667Z,24.48
2022-09-24T14:16:08.266Z,20.35
2022-09-24T14:18:36.955Z,18.25
2022-09-24T14:21:10.624Z,19.73
2022-09-24T14:24:00.058Z,17.42
2022-09-24T14:26:33.233Z,16.35
2022-09-24T14:29:03.934Z,14.57
2022-09-24T14:31:30.671Z,12.50
2022-09-24T14:34:00.362Z,11.15
2022-09-24T14:36:29.181Z,10.48
2022-09-24T14:39:03.352Z,11.38
2022-09-24T14:41:33.155Z,12.05
2022-09-24T14:44:15.820Z,11.40
2022-09-24T14:46:49.988Z,13.15
2022-09-24T14:49:29.044Z,11.52
2022-09-24T14:52:03.772Z,14.75
2022-09-24T14:54:40.622Z,11.55
2022-09-24T14:57:19.313Z,13.65
2022-09-24T14:59:46.845Z,12.75
2022-09-24T15:02:25.540Z,10.40
2022-09-24T15:05:06.494Z,12.52
2022-09-24T15:07:34.988Z,11.87
2022-09-24T15:10:04.479Z,13.23
2022-09-24T15:12:36.540Z,13.10
2022-09-24T15:15:05.060Z,14.30
2022-09-24T15:17:32.846Z,15.82
2022-09-24T15:19:59.975Z,13.43
2022-09-24T15:22:28.024Z,13.52
2022-09-24T15:25:00.237Z,13.85
2022-09-24T15:27:32.943Z,13.98
2022-09-24T15:30:04.763Z,15.50
2022-09-24T15:34:59.269Z,15.38
2022-09-24T15:37:28.653Z,13.27
2022-09-24T15:40:04.957Z,12.82
2022-09-24T15:42:31.540Z,11.73
2022-09-24T15:44:58.217Z,12.25
2022-09-24T15:47:28.076Z,11.27
2022-09-24T15:49:55.498Z,12.38
2022-09-24T15:52:32.926Z,12.60
2022-09-24T15:55:02.826Z,12.05
2022-09-24T15:57:29.466Z,13.65
2022-09-24T15:59:56.094Z,12.15
2022-09-24T16:02:33.043Z,12.88
2022-09-24T16:05:03.528Z,13.20
2022-09-24T16:07:30.820Z,12.00
2022-09-24T16:09:57.317Z,11.63
2022-09-24T16:12:27.872Z,10.55
2022-09-24T16:14:58.904Z,10.15
2022-09-24T16:17:26.267Z,14.33
2022-09-24T16:19:53.019Z,13.32
2022-09-24T16:22:20.705Z,13.32
2022-09-24T16:24:47.482Z,12.25
2022-09-24T16:27:17.186Z,12.55
2022-09-24T16:29:43.669Z,13.07
2022-09-24T16:32:14.832Z,13.48
2022-09-24T16:34:41.403Z,11.88
2022-09-24T16:37:09.090Z,11.55
2022-09-24T16:39:35.608Z,11.40
2022-09-24T16:42:02.127Z,11.18
2022-09-24T16:44:28.574Z,11.55
2022-09-24T16:46:55.103Z,12.40
2022-09-24T16:49:23.300Z,12.18
2022-09-24T16:51:49.836Z,13.75
2022-09-24T16:54:16.281Z,12.68
2022-09-24T16:56:42.877Z,12.07
2022-09-24T16:59:10.844Z,12.57
2022-09-24T17:01:39.511Z,11.90
2022-09-24T17:04:06.590Z,12.15
2022-09-24T17:06:34.096Z,12.40
2022-09-24T17:09:19.663Z,12.55
2022-09-24T17:11:48.385Z,13.75
2022-09-24T17:14:16.657Z,12.30
2022-09-24T17:16:43.970Z,13.15
2022-09-24T17:19:11.735Z,14.57
2022-09-24T17:21:40.914Z,16.85
2022-09-24T17:24:07.721Z,14.02
2022-09-24T17:26:35.522Z,11.40
2022-09-24T17:29:02.101Z,12.20
2022-09-24T17:31:28.754Z,10.18
2022-09-24T17:34:00.125Z,11.88
2022-09-24T17:36:28.933Z,13.00
2022-09-24T17:38:56.349Z,11.50
2022-09-24T17:41:23.529Z,12.05
2022-09-24T17:43:51.341Z,14.20
2022-09-24T17:46:22.532Z,18.70
2022-09-24T17:48:52.176Z,14.07
2022-09-24T17:51:22.750Z,14.90
2022-09-24T17:53:51.649Z,13.57
2022-09-24T17:56:18.912Z,12.75
2022-09-24T17:58:49.283Z,14.65
2022-09-24T18:01:19.748Z,14.82
2022-09-24T18:03:46.589Z,16.35
2022-09-24T18:06:15.227Z,19.42
2022-09-24T18:08:44.075Z,19.50
2022-09-24T18:11:19.642Z,17.38
2022-09-24T18:13:57.692Z,19.50
2022-09-24T18:16:26.904Z,22.63
2022-09-24T18:18:53.572Z,22.30
2022-09-24T18:21:23.203Z,21.42
2022-09-24T18:23:56.205Z,20.55
2022-09-24T18:26:25.718Z,23.42
2022-09-24T18:28:57.981Z,21.58
2022-09-24T18:31:30.712Z,19.15
2022-09-24T18:34:05.076Z,20.20
2022-09-24T18:36:39.663Z,20.30
2022-09-24T18:39:09.176Z,22.70
2022-09-24T18:41:36.388Z,21.77
2022-09-24T18:44:04.482Z,21.50
2022-09-24T18:46:35.277Z,22.00
2022-09-24T18:49:02.232Z,19.35
2022-09-24T18:51:35.060Z,22.50
2022-09-24T18:54:07.481Z,20.65
2022-09-24T18:56:34.835Z,21.23
2022-09-24T18:59:12.051Z,20.67
2022-09-24T19:01:39.464Z,21.75
2022-09-24T19:04:10.867Z,17.98
2022-09-24T19:06:40.226Z,18.92
2022-09-24T19:09:07.671Z,20.15
2022-09-24T19:11:35.109Z,19.08
2022-09-24T19:14:04.448Z,18.35
2022-09-24T19:16:31.431Z,17.52
2022-09-24T19:18:59.577Z,15.75
2022-09-24T19:21:26.548Z,16.63
2022-09-24T19:23:56.399Z,15.57
2022-09-24T19:26:26.706Z,17.98
2022-09-24T19:28:54.315Z,16.27
2022-09-24T19:31:24.199Z,17.95
2022-09-24T19:33:52.674Z,18.75
2022-09-24T19:36:19.876Z,18.08
2022-09-24T19:38:47.210Z,18.65
2022-09-24T19:41:21.176Z,25.55
2022-09-24T19:43:53.037Z,26.98
2022-09-24T19:48:50.120Z,26.60
2022-09-24T19:51:21.763Z,26.95
2022-09-24T19:53:50.314Z,29.17
2022-09-24T19:56:16.907Z,28.98
2022-09-24T19:58:47.071Z,26.10
2022-09-24T20:01:17.281Z,28.27
2022-09-24T20:03:44.264Z,31.98
2022-09-24T20:06:14.557Z,25.92
2022-09-24T20:08:41.369Z,27.42
2022-09-24T20:11:10.888Z,21.45
2022-09-24T20:13:38.566Z,21.20
2022-09-24T20:16:06.438Z,25.33
2022-09-24T20:18:34.670Z,20.08
2022-09-24T20:21:05.113Z,23.00
2022-09-24T20:23:32.069Z,20.73
2022-09-24T20:26:16.819Z,20.13
2022-09-24T20:28:43.251Z,20.45
2022-09-24T20:31:15.132Z,20.23
2022-09-24T20:36:15.802Z,27.10
2022-09-24T20:38:45.596Z,22.95
2022-09-24T20:41:15.116Z,23.80
2022-09-24T20:43:41.668Z,23.08
2022-09-24T20:46:14.451Z,23.08
2022-09-24T20:48:41.017Z,24.58
2022-09-24T20:51:09.632Z,24.00
2022-09-24T20:53:36.919Z,23.02
2022-09-24T20:56:05.947Z,27.63
2022-09-24T20:58:33.789Z,27.25
2022-09-24T21:01:00.717Z,26.38
2022-09-24T21:03:43.510Z,24.90
2022-09-24T21:06:12.192Z,26.20
2022-09-24T21:08:40.520Z,26.38
2022-09-24T21:11:09.741Z,23.20
2022-09-24T21:13:41.530Z,24.75
2022-09-24T21:16:09.541Z,21.98
2022-09-24T21:18:43.970Z,25.77
2022-09-24T21:21:16.518Z,22.85
2022-09-24T21:23:44.372Z,20.42
2022-09-24T21:26:15.342Z,23.15
2022-09-24T21:28:46.574Z,27.23
2022-09-24T21:31:14.681Z,22.83
2022-09-24T21:33:46.280Z,21.55
2022-09-24T21:36:14.061Z,20.45
2022-09-24T21:38:44.287Z,22.27
2022-09-24T21:41:10.780Z,23.55
2022-09-24T21:43:37.366Z,23.70
2022-09-24T21:46:06.549Z,18.65
2022-09-24T21:48:34.132Z,19.60
2022-09-24T21:51:13.763Z,22.25
2022-09-24T21:53:40.614Z,21.17
2022-09-24T21:56:07.637Z,19.80
2022-09-24T21:58:34.644Z,19.95
2022-09-24T22:01:04.685Z,20.70
2022-09-24T22:03:31.936Z,23.95
2022-09-24T22:06:03.238Z,21.70
2022-09-24T22:08:31.731Z,18.00
2022-09-24T22:11:10.038Z,15.85
2022-09-24T22:13:37.623Z,20.30
2022-09-24T22:16:06.354Z,17.02
2022-09-24T22:18:34.006Z,14.57
2022-09-24T22:21:06.767Z,15.50
2022-09-24T22:23:33.243Z,14.63
2022-09-24T22:25:59.837Z,15.32
2022-09-24T22:28:27.623Z,18.73
2022-09-24T22:30:59.559Z,13.25
2022-09-24T22:36:13.615Z,16.80
2022-09-24T22:38:40.098Z,13.52
2022-09-24T22:41:09.955Z,16.25
2022-09-24T22:43:37.010Z,13.55
2022-09-24T22:46:06.742Z,14.52
2022-09-24T22:48:33.553Z,17.10
2022-09-24T22:51:00.029Z,11.93
2022-09-24T22:53:29.572Z,13.13
2022-09-24T22:56:14.067Z,17.23
2022-09-24T22:58:44.394Z,11.95
2022-09-24T23:01:16.775Z,11.35
2022-09-24T23:03:44.882Z,13.93
2022-09-24T23:06:11.946Z,15.55
2022-09-24T23:08:39.405Z,14.20
2022-09-24T23:11:11.535Z,15.25
2022-09-24T23:13:39.399Z,11.20
2022-09-24T23:16:14.006Z,12.90
2022-09-24T23:18:42.859Z,12.70
2022-09-24T23:21:12.790Z,14.60
2022-09-24T23:23:39.278Z,14.20
2022-09-24T23:26:16.277Z,11.82
2022-09-24T23:28:44.654Z,11.73
2022-09-24T23:31:14.353Z,12.85
2022-09-24T23:33:42.341Z,11.45
2022-09-24T23:36:11.371Z,12.80
2022-09-24T23:38:38.665Z,12.77
2022-09-24T23:41:05.961Z,11.15
2022-09-24T23:43:35.972Z,15.73
2022-09-24T23:46:03.245Z,11.50
2022-09-24T23:48:29.793Z,12.18
2022-09-24T23:50:58.347Z,13.68
2022-09-24T23:53:25.522Z,13.13
2022-09-24T23:55:53.895Z,11.98
2022-09-24T23:58:21.970Z,13.45
